Skip Navigation Links
NOAA logo - Click to go to the NOAA homepage
NOAA's National Weather Service
Alaska Aviation Weather Unit
  NWS logo - Click to go to the NWS homepage
Left Navbar Graphic     02 AKDT = 10 GMT

   
NOAA is celebrating 200 years of science, service, and stewardship. Visit the NOAA 200th celebration Web site to learn more.
USA.gov is the U.S. Government's official Web portal to all Federal, state and local government Web resources and services.
Facebook
NWS on Facebook

AAWU Home :: Display TAF Add Bookmark
TESTM CENA2 270417Z AUTO 00000KT 10SM  SKC M16/M22 A2992 RMK A02 SLP058 T11561216

TESTM CENA2 270447Z AUTO 00000KT 10SM  SKC M18/M23 A2992 RMK A02 SLP058 T11821227

TESTM CENA2 270517Z AUTO 00000KT 10SM  SCT080 M19/M23 A2992 RMK A02 SLP058 T11861230

TESTM CENA2 270547Z AUTO 00000KT 10SM  SCT080 M19/M23 A2992 RMK A02 SLP057 T11941229

TESTM CENA2 270617Z AUTO 00000KT 10SM  SCT075 M19/M23 A2992 RMK A02 SLP057 T11941230

TESTM CENA2 270647Z AUTO 00000KT 10SM  FEW075 M20/M23 A2991 RMK A02 SLP056 T12021234

TESTM CENA2 270717Z AUTO 00000KT 10SM  SKC M21/M23 A2991 RMK A02 SLP056 T12101234

TESTM CENA2 270747Z AUTO 00000KT 10SM  SKC M22/M24 A2992 RMK A02 SLP057 T12161237

TESTM CENA2 270817Z AUTO 00000KT 10SM  SKC M22/M24 A2992 RMK A02 SLP057 T12191243

TESTM CENA2 270847Z AUTO 00000KT 10SM  FEW075 M23/M24 A2992 RMK A02 SLP057 T12261244

TESTM CENA2 270917Z AUTO 00000KT 10SM  FEW075 M22/M24 A2991 RMK A02 SLP056 T12251245

TESTM CENA2 270947Z AUTO 00000KT 10SM  SKC M23/M25 A2991 RMK A02 SLP055 T12311252

TESTM CENA2 271017Z AUTO 00000KT 10SM  SKC M23/M25 A2991 RMK A02 SLP055 T12291251


NOAA's National Weather Service
Alaska Aviation Weather Unit
6930 Sand Lake Road
Anchorage, AK 99502-1845
Disclaimer
Credits
Glossary
Privacy Policy
About Us
Career Opportunities
Contact AAWU Internet Services Site last modified: April, 17th 2012